Time;durP1;ratioP1;P1;durP2;ratioP2;P2;SDS_P1;SDS_P2;PMS_P1;PMS_P2;Temp;Humidity;BMP_temperature;BMP_pressure;BME280_temperature;BME280_humidity;BME280_pressure;Samples;Min_cycle;Max_cycle;Signal;HPM_P1;HPM_P2
2024/03/10 00:00:26;;;;;;;0.20;0.20;;;;;;;;;;5087472;28;20041;-66
2024/03/10 00:02:51;;;;;;;0.47;0.47;;;;;;;;;;5092023;28;20019;-66
2024/03/10 00:05:17;;;;;;;0.03;0.03;;;;;;;;;;5087622;28;20095;-66
2024/03/10 00:07:43;;;;;;;0.85;0.85;;;;;;;;;;5079321;28;20586;-66
2024/03/10 00:10:10;;;;;;;0.60;0.60;;;;;;;;;;5087502;28;20035;-66
2024/03/10 00:12:35;;;;;;;1.02;0.93;;;;;;;;;;5092020;28;20105;-66
2024/03/10 00:15:00;;;;;;;1.05;0.95;;;;;;;;;;5091394;28;20060;-66
2024/03/10 00:17:25;;;;;;;0.63;0.63;;;;;;;;;;5088199;28;20478;-66
2024/03/10 00:19:52;;;;;;;0.13;0.13;;;;;;;;;;5081919;28;20032;-66
2024/03/10 00:22:17;;;;;;;0.22;0.22;;;;;;;;;;5091328;28;20023;-66
2024/03/10 00:24:42;;;;;;;0.05;0.05;;;;;;;;;;5092003;28;20024;-66
2024/03/10 00:27:07;;;;;;;0.10;0.10;;;;;;;;;;5088615;28;20082;-66
2024/03/10 00:29:34;;;;;;;0.10;0.10;;;;;;;;;;5085867;28;20021;-66
2024/03/10 00:31:59;;;;;;;0.75;0.75;;;;;;;;;;5091202;28;20583;-66
2024/03/10 00:34:24;;;;;;;1.08;0.98;;;;;;;;;;5083555;28;20095;-66
2024/03/10 00:36:49;;;;;;;0.10;0.10;;;;;;;;;;5090422;28;20384;-66
2024/03/10 00:39:15;;;;;;;0.20;0.20;;;;;;;;;;5087873;28;20027;-66
2024/03/10 00:41:40;;;;;;;9.33;0.90;;;;;;;;;;5094656;28;20023;-66
2024/03/10 00:44:05;;;;;;;1.07;0.50;;;;;;;;;;5095405;28;20265;-66
2024/03/10 00:46:31;;;;;;;0.20;0.20;;;;;;;;;;5094457;28;20031;-66
2024/03/10 00:48:56;;;;;;;0.32;0.32;;;;;;;;;;5087008;28;20032;-66
2024/03/10 00:51:21;;;;;;;0.10;0.10;;;;;;;;;;5095397;28;20020;-66
2024/03/10 00:53:46;;;;;;;0.10;0.10;;;;;;;;;;5095641;28;20126;-66
2024/03/10 00:56:13;;;;;;;0.43;0.43;;;;;;;;;;5096419;28;20790;-66
2024/03/10 00:58:39;;;;;;;0.63;0.60;;;;;;;;;;5095141;28;20471;-66
2024/03/10 01:01:05;;;;;;;0.10;0.10;;;;;;;;;;5095876;28;20086;-66
2024/03/10 01:03:30;;;;;;;0.73;0.73;;;;;;;;;;5100039;28;20463;-66
2024/03/10 01:05:55;;;;;;;0.10;0.10;;;;;;;;;;5114615;28;20080;-66
2024/03/10 01:08:20;;;;;;;0.20;0.20;;;;;;;;;;5095610;28;20101;-66
2024/03/10 01:10:46;;;;;;;0.20;0.20;;;;;;;;;;5096856;28;20342;-66
2024/03/10 01:13:15;;;;;;;1.67;0.52;;;;;;;;;;5096845;28;20479;-66
2024/03/10 01:15:41;;;;;;;0.43;0.43;;;;;;;;;;5097430;28;20035;-66
2024/03/10 01:18:06;;;;;;;0.10;0.10;;;;;;;;;;5096797;28;20500;-66
2024/03/10 01:20:31;;;;;;;0.03;0.03;;;;;;;;;;5112360;28;20023;-67
2024/03/10 01:22:57;;;;;;;0.83;0.77;;;;;;;;;;5115625;28;20498;-66
2024/03/10 01:25:22;;;;;;;0.38;0.38;;;;;;;;;;5115156;28;20023;-65
2024/03/10 01:27:47;;;;;;;0.10;0.10;;;;;;;;;;5098940;28;20463;-65
2024/03/10 01:30:13;;;;;;;1.70;0.43;;;;;;;;;;5111959;28;20028;-65
2024/03/10 01:32:39;;;;;;;0.80;0.43;;;;;;;;;;5116511;28;20417;-65
2024/03/10 01:35:05;;;;;;;2.00;1.20;;;;;;;;;;5116194;28;20022;-65
2024/03/10 01:37:31;;;;;;;1.45;0.52;;;;;;;;;;5114955;28;20259;-65
2024/03/10 01:39:56;;;;;;;0.30;0.30;;;;;;;;;;5115865;28;20049;-65
2024/03/10 01:42:21;;;;;;;0.77;0.77;;;;;;;;;;5115834;28;20016;-65
2024/03/10 01:44:46;;;;;;;0.32;0.32;;;;;;;;;;5114320;28;20084;-65
2024/03/10 01:47:12;;;;;;;0.13;0.13;;;;;;;;;;5101584;28;20016;-65
2024/03/10 01:49:37;;;;;;;0.10;0.10;;;;;;;;;;5095793;28;20663;-65
2024/03/10 01:52:03;;;;;;;0.40;0.25;;;;;;;;;;5096065;28;20102;-65
2024/03/10 01:54:30;;;;;;;0.10;0.10;;;;;;;;;;5101674;28;20019;-65
2024/03/10 01:56:56;;;;;;;0.52;0.43;;;;;;;;;;5107433;28;20035;-65
2024/03/10 01:59:22;;;;;;;0.00;0.00;;;;;;;;;;5115549;28;20099;-65
2024/03/10 02:01:47;;;;;;;0.00;0.00;;;;;;;;;;5097615;28;20020;-65
2024/03/10 02:04:15;;;;;;;0.10;0.10;;;;;;;;;;5115093;28;20019;-65
2024/03/10 02:06:43;;;;;;;0.38;0.38;;;;;;;;;;5091071;28;20516;-65
2024/03/10 02:09:10;;;;;;;0.10;0.10;;;;;;;;;;5095474;28;20047;-65
2024/03/10 02:11:35;;;;;;;0.17;0.17;;;;;;;;;;5107281;28;20031;-65
2024/03/10 02:14:00;;;;;;;0.40;0.38;;;;;;;;;;5115230;28;20016;-65
2024/03/10 02:16:25;;;;;;;0.00;0.00;;;;;;;;;;5113129;28;20081;-65
2024/03/10 02:18:53;;;;;;;0.07;0.07;;;;;;;;;;5095575;28;20020;-65
2024/03/10 02:21:21;;;;;;;1.17;0.50;;;;;;;;;;5103224;28;20243;-65
2024/03/10 02:23:57;;;;;;;0.32;0.32;;;;;;;;;;5115023;28;20100;-65
2024/03/10 02:26:28;;;;;;;0.25;0.25;;;;;;;;;;5099499;28;20521;-65
2024/03/10 02:29:14;;;;;;;0.00;0.00;;;;;;;;;;5104866;28;20036;-65
2024/03/10 02:48:06;;;;;;;0.00;0.00;;;;;;;;;;5106445;28;20035;-66
2024/03/10 02:50:32;;;;;;;0.00;0.00;;;;;;;;;;5086579;28;20055;-66
2024/03/10 02:52:57;;;;;;;0.20;0.20;;;;;;;;;;5094625;28;20114;-67
2024/03/10 02:55:22;;;;;;;0.10;0.10;;;;;;;;;;5111055;28;20106;-66
2024/03/10 02:58:01;;;;;;;0.37;0.37;;;;;;;;;;5099798;28;20390;-66
2024/03/10 03:00:28;;;;;;;0.10;0.10;;;;;;;;;;5112785;28;20019;-66
2024/03/10 03:02:53;;;;;;;0.10;0.10;;;;;;;;;;5094712;28;20061;-66
2024/03/10 03:05:18;;;;;;;0.07;0.07;;;;;;;;;;5094421;28;20405;-66
2024/03/10 03:07:43;;;;;;;0.38;0.38;;;;;;;;;;5094357;28;20616;-66
2024/03/10 03:10:10;;;;;;;0.37;0.13;;;;;;;;;;5102660;28;20012;-66
2024/03/10 03:12:35;;;;;;;0.00;0.00;;;;;;;;;;5094572;28;20318;-66
2024/03/10 03:15:01;;;;;;;0.10;0.10;;;;;;;;;;5094049;28;20016;-67
2024/03/10 03:17:26;;;;;;;0.57;0.57;;;;;;;;;;5093944;28;20329;-67
2024/03/10 03:19:51;;;;;;;0.00;0.00;;;;;;;;;;5107239;28;20360;-66
2024/03/10 03:22:16;;;;;;;0.03;0.03;;;;;;;;;;5113913;28;20670;-66
2024/03/10 03:24:41;;;;;;;0.20;0.13;;;;;;;;;;5101002;28;20722;-66
2024/03/10 03:27:08;;;;;;;0.00;0.00;;;;;;;;;;5109612;28;20800;-66
2024/03/10 03:29:33;;;;;;;0.13;0.13;;;;;;;;;;5114253;28;20030;-66
2024/03/10 03:31:58;;;;;;;0.10;0.10;;;;;;;;;;5094157;28;20024;-66
2024/03/10 03:34:24;;;;;;;0.47;0.47;;;;;;;;;;5093847;28;20020;-66
2024/03/10 03:36:49;;;;;;;0.10;0.10;;;;;;;;;;5093750;28;20020;-66
2024/03/10 03:39:15;;;;;;;0.22;0.22;;;;;;;;;;5094850;28;20309;-66
2024/03/10 03:41:40;;;;;;;0.10;0.10;;;;;;;;;;5093882;28;20027;-66
2024/03/10 03:44:06;;;;;;;0.00;0.00;;;;;;;;;;5093903;28;20023;-65
2024/03/10 03:46:32;;;;;;;0.05;0.05;;;;;;;;;;5110550;28;20647;-65
2024/03/10 03:48:57;;;;;;;0.35;0.35;;;;;;;;;;5093702;28;20110;-65
2024/03/10 03:51:22;;;;;;;0.10;0.10;;;;;;;;;;5111395;28;20031;-65
2024/03/10 03:53:48;;;;;;;0.10;0.10;;;;;;;;;;5113608;28;20054;-65
2024/03/10 03:56:13;;;;;;;0.10;0.10;;;;;;;;;;5113267;28;20515;-65
2024/03/10 03:58:39;;;;;;;0.73;0.38;;;;;;;;;;5076295;28;20071;-65
2024/03/10 04:01:04;;;;;;;0.10;0.10;;;;;;;;;;5087545;28;20027;-65
2024/03/10 04:03:29;;;;;;;1.13;1.03;;;;;;;;;;5093436;28;20261;-65
2024/03/10 04:05:55;;;;;;;0.00;0.00;;;;;;;;;;5093657;28;20027;-65
2024/03/10 04:08:20;;;;;;;0.50;0.43;;;;;;;;;;5093677;28;20031;-65
2024/03/10 04:10:46;;;;;;;0.65;0.65;;;;;;;;;;5093462;28;20256;-65
2024/03/10 04:13:12;;;;;;;0.10;0.10;;;;;;;;;;5093470;28;20123;-65
2024/03/10 04:15:37;;;;;;;0.10;0.10;;;;;;;;;;5107011;28;20463;-65
2024/03/10 04:18:04;;;;;;;0.00;0.00;;;;;;;;;;5112461;28;20138;-65
2024/03/10 04:20:30;;;;;;;0.45;0.45;;;;;;;;;;5113291;28;20098;-65
2024/03/10 04:22:55;;;;;;;0.00;0.00;;;;;;;;;;5108099;28;20111;-65
2024/03/10 04:25:20;;;;;;;0.03;0.03;;;;;;;;;;5094391;28;20024;-65
2024/03/10 04:27:46;;;;;;;0.10;0.10;;;;;;;;;;5093430;28;20114;-65
2024/03/10 04:30:11;;;;;;;0.00;0.00;;;;;;;;;;5093455;28;20107;-65
2024/03/10 04:32:36;;;;;;;0.40;0.25;;;;;;;;;;5099863;28;20068;-65
2024/03/10 04:35:02;;;;;;;0.10;0.10;;;;;;;;;;5102976;28;20067;-65
2024/03/10 04:37:28;;;;;;;0.15;0.15;;;;;;;;;;5093375;28;20020;-65
2024/03/10 04:39:53;;;;;;;0.20;0.20;;;;;;;;;;5093110;28;20075;-65
2024/03/10 04:42:19;;;;;;;0.00;0.00;;;;;;;;;;5096000;28;20260;-65
2024/03/10 04:44:44;;;;;;;0.10;0.10;;;;;;;;;;5107638;28;20099;-65
2024/03/10 04:47:09;;;;;;;0.97;0.60;;;;;;;;;;5092976;28;20051;-65
2024/03/10 04:49:34;;;;;;;0.20;0.20;;;;;;;;;;5093014;28;20327;-65
2024/03/10 04:52:00;;;;;;;0.07;0.07;;;;;;;;;;5093193;28;20484;-65
2024/03/10 04:54:25;;;;;;;0.10;0.10;;;;;;;;;;5102262;28;20022;-67
2024/03/10 04:56:51;;;;;;;0.10;0.10;;;;;;;;;;5112914;28;20019;-67
2024/03/10 04:59:17;;;;;;;3.50;0.60;;;;;;;;;;5105786;28;20111;-67
2024/03/10 05:01:43;;;;;;;0.28;0.28;;;;;;;;;;5092830;28;20031;-66
2024/03/10 05:04:09;;;;;;;0.30;0.30;;;;;;;;;;5094055;28;20024;-67
2024/03/10 05:06:34;;;;;;;0.47;0.47;;;;;;;;;;5092716;28;20256;-66
2024/03/10 05:09:00;;;;;;;0.00;0.00;;;;;;;;;;5094157;28;20035;-67
2024/03/10 05:11:25;;;;;;;0.13;0.13;;;;;;;;;;5093091;28;20027;-67
2024/03/10 05:13:50;;;;;;;0.00;0.00;;;;;;;;;;5100397;28;20019;-66
2024/03/10 05:16:16;;;;;;;0.00;0.00;;;;;;;;;;5111887;28;20066;-66
2024/03/10 05:18:42;;;;;;;0.10;0.10;;;;;;;;;;5111065;28;20309;-67
2024/03/10 05:21:07;;;;;;;0.77;0.22;;;;;;;;;;5112189;28;20027;-66
2024/03/10 05:23:32;;;;;;;0.10;0.10;;;;;;;;;;5114516;28;20055;-67
2024/03/10 05:25:59;;;;;;;0.00;0.00;;;;;;;;;;5114491;28;20027;-67
2024/03/10 05:28:24;;;;;;;0.10;0.10;;;;;;;;;;5113180;28;20048;-67
2024/03/10 05:30:50;;;;;;;0.00;0.00;;;;;;;;;;5096549;28;20524;-66
2024/03/10 05:33:15;;;;;;;0.10;0.10;;;;;;;;;;5096345;28;20278;-67
2024/03/10 05:35:40;;;;;;;0.07;0.07;;;;;;;;;;5106215;28;20029;-66
2024/03/10 05:38:05;;;;;;;0.00;0.00;;;;;;;;;;5116265;28;20404;-66
2024/03/10 05:40:32;;;;;;;0.10;0.10;;;;;;;;;;5115881;28;20011;-67
2024/03/10 05:42:57;;;;;;;0.10;0.10;;;;;;;;;;5090556;28;20490;-67
2024/03/10 05:45:22;;;;;;;0.00;0.00;;;;;;;;;;5114413;28;20055;-67
2024/03/10 05:47:48;;;;;;;0.27;0.23;;;;;;;;;;5115469;28;20019;-66
2024/03/10 05:50:14;;;;;;;0.10;0.10;;;;;;;;;;5115999;28;20409;-67
2024/03/10 05:52:39;;;;;;;1.10;0.75;;;;;;;;;;5115732;28;20436;-67
2024/03/10 05:55:07;;;;;;;0.10;0.10;;;;;;;;;;5106668;28;20031;-66
2024/03/10 05:57:33;;;;;;;0.15;0.15;;;;;;;;;;5114403;28;20103;-66
2024/03/10 05:59:58;;;;;;;0.20;0.20;;;;;;;;;;5115816;28;20016;-67
2024/03/10 06:02:23;;;;;;;0.00;0.00;;;;;;;;;;5115155;28;20016;-67
2024/03/10 06:04:49;;;;;;;0.15;0.15;;;;;;;;;;5115774;28;20027;-65
2024/03/10 06:07:14;;;;;;;0.10;0.10;;;;;;;;;;5113971;28;20023;-65
2024/03/10 06:09:39;;;;;;;0.13;0.13;;;;;;;;;;5115744;28;20019;-65
2024/03/10 06:12:08;;;;;;;0.13;0.13;;;;;;;;;;5115199;28;20252;-65
2024/03/10 06:14:33;;;;;;;0.08;0.08;;;;;;;;;;5115517;28;20098;-65
2024/03/10 06:16:59;;;;;;;0.00;0.00;;;;;;;;;;5113136;28;20151;-65
2024/03/10 06:27:36;;;;;;;0.10;0.10;;;;;;;;;;5107002;28;20022;-65
2024/03/10 06:30:01;;;;;;;0.30;0.30;;;;;;;;;;5114995;28;20383;-65
2024/03/10 06:32:27;;;;;;;0.32;0.32;;;;;;;;;;5114739;28;20011;-65
2024/03/10 06:34:52;;;;;;;0.00;0.00;;;;;;;;;;5114833;28;20024;-65
2024/03/10 06:37:19;;;;;;;0.00;0.00;;;;;;;;;;5113399;28;20023;-65
2024/03/10 06:39:45;;;;;;;0.28;0.28;;;;;;;;;;5114750;28;20111;-65
2024/03/10 06:42:11;;;;;;;0.03;0.03;;;;;;;;;;5105776;28;20098;-65
2024/03/10 06:44:36;;;;;;;0.05;0.05;;;;;;;;;;5114672;28;20107;-65
2024/03/10 06:47:02;;;;;;;0.10;0.10;;;;;;;;;;5104153;28;20072;-65
2024/03/10 06:49:27;;;;;;;0.00;0.00;;;;;;;;;;5095022;28;20047;-65
2024/03/10 06:51:52;;;;;;;0.33;0.30;;;;;;;;;;5095873;28;20470;-65
2024/03/10 06:54:18;;;;;;;0.00;0.00;;;;;;;;;;5094932;28;20067;-65
2024/03/10 06:56:43;;;;;;;0.00;0.00;;;;;;;;;;5083930;28;20277;-65
2024/03/10 06:59:08;;;;;;;0.47;0.47;;;;;;;;;;5106638;28;20019;-65
2024/03/10 07:01:34;;;;;;;0.20;0.20;;;;;;;;;;5113150;28;20039;-65
2024/03/10 07:03:59;;;;;;;0.00;0.00;;;;;;;;;;5093999;28;20103;-65
2024/03/10 07:06:26;;;;;;;0.10;0.10;;;;;;;;;;5098254;28;20072;-65
2024/03/10 07:08:51;;;;;;;0.00;0.00;;;;;;;;;;5102173;28;20024;-65
2024/03/10 07:11:16;;;;;;;0.10;0.10;;;;;;;;;;5093134;28;20034;-65
2024/03/10 07:13:42;;;;;;;0.00;0.00;;;;;;;;;;5092924;28;20020;-65
2024/03/10 07:16:07;;;;;;;0.00;0.00;;;;;;;;;;5092962;28;20664;-65
2024/03/10 07:18:32;;;;;;;0.10;0.10;;;;;;;;;;5093017;28;20046;-65
2024/03/10 07:20:57;;;;;;;0.10;0.10;;;;;;;;;;5093278;28;20024;-65
2024/03/10 07:23:23;;;;;;;0.00;0.00;;;;;;;;;;5106853;28;20474;-65
2024/03/10 07:25:48;;;;;;;0.05;0.05;;;;;;;;;;5113034;28;20046;-65
2024/03/10 07:28:13;;;;;;;0.97;0.97;;;;;;;;;;5112435;28;20042;-65
2024/03/10 07:30:38;;;;;;;0.03;0.03;;;;;;;;;;5112702;28;20274;-65
2024/03/10 07:33:04;;;;;;;0.27;0.27;;;;;;;;;;5111073;28;20023;-65
2024/03/10 07:35:29;;;;;;;0.00;0.00;;;;;;;;;;5092560;28;20437;-65
2024/03/10 07:37:54;;;;;;;0.20;0.20;;;;;;;;;;5093063;28;20027;-65
2024/03/10 07:40:20;;;;;;;0.10;0.10;;;;;;;;;;5092920;28;20028;-65
2024/03/10 07:42:46;;;;;;;0.00;0.00;;;;;;;;;;5104527;28;20016;-65
2024/03/10 07:45:11;;;;;;;0.00;0.00;;;;;;;;;;5095394;28;20023;-65
2024/03/10 07:47:38;;;;;;;0.10;0.10;;;;;;;;;;5092832;28;20073;-65
2024/03/10 07:50:06;;;;;;;0.20;0.20;;;;;;;;;;5092102;28;20027;-65
2024/03/10 07:52:31;;;;;;;0.17;0.15;;;;;;;;;;5100424;28;20027;-65
2024/03/10 07:54:57;;;;;;;0.20;0.20;;;;;;;;;;5110575;28;20012;-65
2024/03/10 07:57:22;;;;;;;0.20;0.17;;;;;;;;;;5093591;28;20244;-65
2024/03/10 07:59:47;;;;;;;0.20;0.20;;;;;;;;;;5093749;28;20016;-65
2024/03/10 08:02:14;;;;;;;0.30;0.30;;;;;;;;;;5093487;28;20468;-65
2024/03/10 08:04:40;;;;;;;0.13;0.13;;;;;;;;;;5093751;28;20460;-65
2024/03/10 08:07:07;;;;;;;0.32;0.30;;;;;;;;;;5102982;28;20020;-65
2024/03/10 08:09:33;;;;;;;0.00;0.00;;;;;;;;;;5093595;28;20066;-65
2024/03/10 08:11:58;;;;;;;0.87;0.87;;;;;;;;;;5093370;28;20056;-65
2024/03/10 08:14:23;;;;;;;0.10;0.10;;;;;;;;;;5093415;28;20256;-65
2024/03/10 08:16:48;;;;;;;0.10;0.10;;;;;;;;;;5099147;28;20288;-65
2024/03/10 08:19:14;;;;;;;0.10;0.10;;;;;;;;;;5113019;28;20023;-65
2024/03/10 08:21:39;;;;;;;0.00;0.00;;;;;;;;;;5113344;28;20031;-65
2024/03/10 08:24:05;;;;;;;0.00;0.00;;;;;;;;;;5113445;28;20030;-66
2024/03/10 08:26:31;;;;;;;0.10;0.10;;;;;;;;;;5103827;28;20468;-67
2024/03/10 08:28:56;;;;;;;0.03;0.03;;;;;;;;;;5093075;28;20026;-74
2024/03/10 08:31:21;;;;;;;0.20;0.20;;;;;;;;;;5093182;28;20024;-73
2024/03/10 08:33:47;;;;;;;0.53;0.53;;;;;;;;;;5093049;28;20263;-66
2024/03/10 08:36:12;;;;;;;0.00;0.00;;;;;;;;;;5097741;28;20363;-67
2024/03/10 08:38:37;;;;;;;0.17;0.17;;;;;;;;;;5113078;28;20016;-66
2024/03/10 08:41:04;;;;;;;0.30;0.30;;;;;;;;;;5112166;28;20023;-66
2024/03/10 08:43:29;;;;;;;0.13;0.13;;;;;;;;;;5113136;28;20046;-66
2024/03/10 08:45:55;;;;;;;0.25;0.20;;;;;;;;;;5110338;28;20364;-66
2024/03/10 08:48:20;;;;;;;0.13;0.13;;;;;;;;;;5093108;28;20098;-66
2024/03/10 08:50:45;;;;;;;0.00;0.00;;;;;;;;;;5093130;28;20331;-66
2024/03/10 08:53:10;;;;;;;0.00;0.00;;;;;;;;;;5093190;28;20028;-66
2024/03/10 08:55:36;;;;;;;0.10;0.10;;;;;;;;;;5093180;28;20050;-66
2024/03/10 08:58:03;;;;;;;0.30;0.30;;;;;;;;;;5103757;28;20383;-66
2024/03/10 09:00:29;;;;;;;0.10;0.10;;;;;;;;;;5097009;28;20743;-66
2024/03/10 09:02:54;;;;;;;0.17;0.17;;;;;;;;;;5106788;28;20030;-67
2024/03/10 09:05:19;;;;;;;0.00;0.00;;;;;;;;;;5117556;28;20019;-66
2024/03/10 09:07:47;;;;;;;0.30;0.30;;;;;;;;;;5117221;28;20055;-66
2024/03/10 09:10:12;;;;;;;0.05;0.05;;;;;;;;;;5117464;28;20100;-67
2024/03/10 09:12:38;;;;;;;0.00;0.00;;;;;;;;;;5101914;28;20070;-66
2024/03/10 09:15:05;;;;;;;0.35;0.35;;;;;;;;;;5096580;28;20027;-66
2024/03/10 09:17:30;;;;;;;0.65;0.45;;;;;;;;;;5096402;28;20079;-67
2024/03/10 09:19:56;;;;;;;0.00;0.00;;;;;;;;;;5096649;28;20062;-66
2024/03/10 09:22:21;;;;;;;0.43;0.43;;;;;;;;;;5096778;28;20427;-67
2024/03/10 09:24:49;;;;;;;0.20;0.20;;;;;;;;;;5096720;28;20020;-67
2024/03/10 09:27:14;;;;;;;0.55;0.47;;;;;;;;;;5109583;28;20031;-66
2024/03/10 09:29:40;;;;;;;0.00;0.00;;;;;;;;;;5116818;28;20026;-66
2024/03/10 09:32:08;;;;;;;0.10;0.10;;;;;;;;;;5116730;28;20252;-66
2024/03/10 09:34:36;;;;;;;0.40;0.40;;;;;;;;;;5116866;28;20438;-66
2024/03/10 09:37:01;;;;;;;0.08;0.08;;;;;;;;;;5116477;28;20026;-67
2024/03/10 09:39:26;;;;;;;0.10;0.10;;;;;;;;;;5116677;28;20019;-66
2024/03/10 09:41:52;;;;;;;0.87;0.87;;;;;;;;;;5096341;28;20351;-67
2024/03/10 09:44:18;;;;;;;0.63;0.50;;;;;;;;;;5096397;28;20024;-67
2024/03/10 09:46:44;;;;;;;0.20;0.20;;;;;;;;;;5096317;28;20099;-67
2024/03/10 09:49:16;;;;;;;0.40;0.40;;;;;;;;;;5096017;28;20486;-66
2024/03/10 09:51:45;;;;;;;0.10;0.10;;;;;;;;;;5095945;28;20024;-66
2024/03/10 09:54:13;;;;;;;0.10;0.10;;;;;;;;;;5096231;28;20039;-65
2024/03/10 09:56:40;;;;;;;0.30;0.30;;;;;;;;;;5103859;28;20468;-65
2024/03/10 09:59:13;;;;;;;0.43;0.43;;;;;;;;;;5096077;28;20072;-65
2024/03/10 10:01:38;;;;;;;0.63;0.38;;;;;;;;;;5096021;28;20042;-65
2024/03/10 10:04:06;;;;;;;0.00;0.00;;;;;;;;;;5095295;28;20456;-65
2024/03/10 10:06:32;;;;;;;0.30;0.30;;;;;;;;;;5095834;28;20030;-65
2024/03/10 10:09:07;;;;;;;0.00;0.00;;;;;;;;;;5095449;28;20369;-65
2024/03/10 10:11:32;;;;;;;0.00;0.00;;;;;;;;;;5095415;28;20032;-65
2024/03/10 10:14:10;;;;;;;0.20;0.20;;;;;;;;;;5095450;28;20016;-65
2024/03/10 10:16:36;;;;;;;0.13;0.10;;;;;;;;;;5104968;28;20640;-65
2024/03/10 10:19:05;;;;;;;0.10;0.10;;;;;;;;;;5099856;28;20513;-65
2024/03/10 10:21:31;;;;;;;0.40;0.40;;;;;;;;;;5115396;28;20487;-65
2024/03/10 10:23:57;;;;;;;0.13;0.13;;;;;;;;;;5096563;28;20028;-65
2024/03/10 10:26:24;;;;;;;0.00;0.00;;;;;;;;;;5109662;28;20027;-65
2024/03/10 10:29:02;;;;;;;0.08;0.08;;;;;;;;;;5095414;28;20032;-65
2024/03/10 10:31:28;;;;;;;0.22;0.22;;;;;;;;;;5095138;28;20055;-65
2024/03/10 10:33:53;;;;;;;0.65;0.40;;;;;;;;;;5103191;28;20034;-65
2024/03/10 10:36:21;;;;;;;0.03;0.03;;;;;;;;;;5113237;28;20423;-65
2024/03/10 10:38:48;;;;;;;0.00;0.00;;;;;;;;;;5114833;28;20031;-65
2024/03/10 10:41:13;;;;;;;0.20;0.15;;;;;;;;;;5114347;28;20020;-65
2024/03/10 10:43:39;;;;;;;0.05;0.05;;;;;;;;;;5111080;28;20478;-65
2024/03/10 10:46:10;;;;;;;0.52;0.52;;;;;;;;;;5101692;28;20136;-65
2024/03/10 10:48:35;;;;;;;0.20;0.20;;;;;;;;;;5103905;28;20027;-65
2024/03/10 10:51:00;;;;;;;0.98;0.47;;;;;;;;;;5094682;28;20032;-65
2024/03/10 10:53:26;;;;;;;2.65;0.25;;;;;;;;;;5094949;28;20013;-65
2024/03/10 10:55:51;;;;;;;0.10;0.10;;;;;;;;;;5094505;28;20067;-65
2024/03/10 10:58:17;;;;;;;0.10;0.10;;;;;;;;;;5107538;28;20417;-65
2024/03/10 11:00:49;;;;;;;0.00;0.00;;;;;;;;;;5089380;28;20573;-65
2024/03/10 11:03:22;;;;;;;0.28;0.28;;;;;;;;;;5110078;28;20022;-65
2024/03/10 11:06:02;;;;;;;0.50;0.50;;;;;;;;;;5114680;28;20101;-65
2024/03/10 11:08:28;;;;;;;0.40;0.28;;;;;;;;;;5095103;28;20110;-65
2024/03/10 11:10:54;;;;;;;0.20;0.20;;;;;;;;;;5094483;28;20448;-65
2024/03/10 11:13:20;;;;;;;0.22;0.22;;;;;;;;;;5094243;28;20115;-65
2024/03/10 11:15:45;;;;;;;0.20;0.20;;;;;;;;;;5097352;28;20119;-78
2024/03/10 11:18:26;;;;;;;0.68;0.45;;;;;;;;;;5097773;28;20123;-65
2024/03/10 11:20:53;;;;;;;0.00;0.00;;;;;;;;;;5093766;28;20487;-65
2024/03/10 11:23:22;;;;;;;0.10;0.10;;;;;;;;;;5094134;28;20062;-65
2024/03/10 11:25:49;;;;;;;0.00;0.00;;;;;;;;;;5094086;28;20103;-65
2024/03/10 11:28:14;;;;;;;0.35;0.35;;;;;;;;;;5093670;28;20509;-65
2024/03/10 11:30:45;;;;;;;0.30;0.30;;;;;;;;;;5082322;28;20042;-65
2024/03/10 11:33:12;;;;;;;2.10;1.40;;;;;;;;;;5088443;28;20253;-65
2024/03/10 11:35:41;;;;;;;0.20;0.20;;;;;;;;;;5092987;28;20028;-65
2024/03/10 11:38:09;;;;;;;1.55;0.30;;;;;;;;;;5090500;28;20478;-65
2024/03/10 11:40:34;;;;;;;0.35;0.35;;;;;;;;;;5092774;28;20487;-65
2024/03/10 11:43:01;;;;;;;0.20;0.20;;;;;;;;;;5093253;28;20028;-65
2024/03/10 11:45:26;;;;;;;0.35;0.35;;;;;;;;;;5089729;28;20051;-65
2024/03/10 11:47:54;;;;;;;0.43;0.43;;;;;;;;;;5073034;28;20484;-65
2024/03/10 11:50:19;;;;;;;0.10;0.10;;;;;;;;;;5073236;28;20052;-65
2024/03/10 11:52:45;;;;;;;0.40;0.38;;;;;;;;;;5073092;28;20044;-65
2024/03/10 11:55:11;;;;;;;0.20;0.20;;;;;;;;;;5072796;28;20024;-65
2024/03/10 11:57:39;;;;;;;0.40;0.40;;;;;;;;;;5073026;28;20133;-65
2024/03/10 12:00:06;;;;;;;0.10;0.10;;;;;;;;;;5072512;28;20437;-65
2024/03/10 12:02:31;;;;;;;0.00;0.00;;;;;;;;;;5072632;28;20035;-65
2024/03/10 12:04:56;;;;;;;0.77;0.40;;;;;;;;;;5072788;28;20020;-65
2024/03/10 12:07:25;;;;;;;0.50;0.50;;;;;;;;;;5079516;28;20287;-65
2024/03/10 12:09:53;;;;;;;1.27;0.40;;;;;;;;;;5094573;28;20483;-65
2024/03/10 12:12:18;;;;;;;0.47;0.47;;;;;;;;;;5093306;28;20016;-65
2024/03/10 12:14:44;;;;;;;0.07;0.07;;;;;;;;;;5092397;28;20476;-65
2024/03/10 12:17:15;;;;;;;0.27;0.27;;;;;;;;;;5092796;28;20055;-65
2024/03/10 12:19:42;;;;;;;1.30;1.15;;;;;;;;;;5092455;28;20734;-65
2024/03/10 12:22:07;;;;;;;0.63;0.63;;;;;;;;;;5093147;28;20479;-64
2024/03/10 12:24:33;;;;;;;0.40;0.40;;;;;;;;;;5092824;28;20024;-64
2024/03/10 12:27:04;;;;;;;0.30;0.30;;;;;;;;;;5092351;28;20030;-65
2024/03/10 12:29:29;;;;;;;1.65;0.65;;;;;;;;;;5081094;28;20291;-64
2024/03/10 12:31:54;;;;;;;0.43;0.20;;;;;;;;;;5093125;28;20060;-65
2024/03/10 12:34:21;;;;;;;0.40;0.37;;;;;;;;;;5096718;28;20382;-65
2024/03/10 12:36:46;;;;;;;1.95;1.10;;;;;;;;;;5096148;28;20432;-65
2024/03/10 12:39:11;;;;;;;1.02;0.70;;;;;;;;;;5091150;28;20044;-65
2024/03/10 12:41:37;;;;;;;0.90;0.30;;;;;;;;;;5093590;28;20055;-65
2024/03/10 12:44:03;;;;;;;0.30;0.30;;;;;;;;;;5090247;28;20015;-65
2024/03/10 12:46:28;;;;;;;0.10;0.10;;;;;;;;;;5113289;28;20471;-65
2024/03/10 12:48:54;;;;;;;0.00;0.00;;;;;;;;;;5114005;28;20027;-65
2024/03/10 12:51:19;;;;;;;0.60;0.57;;;;;;;;;;5096475;28;20024;-65
2024/03/10 12:53:45;;;;;;;0.28;0.28;;;;;;;;;;5096691;28;20024;-65
2024/03/10 12:56:12;;;;;;;0.10;0.10;;;;;;;;;;5096753;28;20028;-65
2024/03/10 12:58:38;;;;;;;3.30;0.47;;;;;;;;;;5096055;28;20455;-65
2024/03/10 13:01:04;;;;;;;0.43;0.43;;;;;;;;;;5096601;28;20085;-65
2024/03/10 13:03:29;;;;;;;0.10;0.10;;;;;;;;;;5096531;28;20380;-65
2024/03/10 13:05:55;;;;;;;0.17;0.17;;;;;;;;;;5096575;28;20031;-65
2024/03/10 13:08:21;;;;;;;0.17;0.17;;;;;;;;;;5096321;28;20031;-64
2024/03/10 13:10:46;;;;;;;0.47;0.47;;;;;;;;;;5096146;28;20024;-65
2024/03/10 13:13:12;;;;;;;0.40;0.40;;;;;;;;;;5077577;28;20020;-65
2024/03/10 13:15:37;;;;;;;0.40;0.40;;;;;;;;;;5095643;28;20674;-65
2024/03/10 13:18:07;;;;;;;0.22;0.22;;;;;;;;;;5084394;28;20047;-64
2024/03/10 13:20:33;;;;;;;0.10;0.10;;;;;;;;;;5090966;28;20459;-64
2024/03/10 13:22:58;;;;;;;0.28;0.28;;;;;;;;;;5086755;28;20104;-65
2024/03/10 13:25:23;;;;;;;0.20;0.20;;;;;;;;;;5086016;28;20031;-64
2024/03/10 13:27:49;;;;;;;0.28;0.28;;;;;;;;;;5083726;28;20248;-65
2024/03/10 13:30:14;;;;;;;0.30;0.30;;;;;;;;;;5090722;28;20048;-65
2024/03/10 13:32:43;;;;;;;0.98;0.55;;;;;;;;;;5100532;28;20016;-65
2024/03/10 13:35:08;;;;;;;0.00;0.00;;;;;;;;;;5116023;28;20011;-65
2024/03/10 13:37:34;;;;;;;0.20;0.20;;;;;;;;;;5093129;28;20231;-65
2024/03/10 13:40:13;;;;;;;0.20;0.20;;;;;;;;;;5091090;28;20040;-65
2024/03/10 13:42:44;;;;;;;0.20;0.20;;;;;;;;;;5084403;28;20028;-65
2024/03/10 13:45:10;;;;;;;0.15;0.13;;;;;;;;;;5094656;28;20390;-64
2024/03/10 13:47:35;;;;;;;0.50;0.50;;;;;;;;;;5086603;28;20111;-64
2024/03/10 13:50:02;;;;;;;0.10;0.10;;;;;;;;;;5094076;28;20433;-64
2024/03/10 13:52:28;;;;;;;0.20;0.20;;;;;;;;;;5091134;28;20487;-65
2024/03/10 13:54:53;;;;;;;0.45;0.45;;;;;;;;;;5084472;28;20025;-65
2024/03/10 13:57:22;;;;;;;0.22;0.22;;;;;;;;;;5092320;28;20025;-64
2024/03/10 13:59:48;;;;;;;1.50;1.05;;;;;;;;;;5095443;28;20388;-64
2024/03/10 14:02:14;;;;;;;0.50;0.50;;;;;;;;;;5092914;28;20020;-65
2024/03/10 14:04:39;;;;;;;0.20;0.20;;;;;;;;;;5083037;28;20030;-65
2024/03/10 14:07:06;;;;;;;0.30;0.30;;;;;;;;;;5088505;28;20024;-65
2024/03/10 14:09:31;;;;;;;0.15;0.15;;;;;;;;;;5095051;28;20314;-64
2024/03/10 14:11:56;;;;;;;0.40;0.40;;;;;;;;;;5094734;28;20020;-65
2024/03/10 14:14:22;;;;;;;0.10;0.10;;;;;;;;;;5094582;28;20047;-65
2024/03/10 14:16:49;;;;;;;0.35;0.35;;;;;;;;;;5086701;28;20323;-65
2024/03/10 14:19:14;;;;;;;0.10;0.10;;;;;;;;;;5086130;28;20174;-64
2024/03/10 14:21:40;;;;;;;0.10;0.10;;;;;;;;;;5087703;28;20073;-64
2024/03/10 14:24:06;;;;;;;0.55;0.55;;;;;;;;;;5082978;28;20261;-64
2024/03/10 14:26:31;;;;;;;0.15;0.15;;;;;;;;;;5089348;28;20048;-64
2024/03/10 14:28:57;;;;;;;0.45;0.45;;;;;;;;;;5094342;28;20020;-64
2024/03/10 14:31:24;;;;;;;0.20;0.20;;;;;;;;;;5094371;28;20020;-64
2024/03/10 14:33:52;;;;;;;0.90;0.50;;;;;;;;;;5091611;28;20353;-65
2024/03/10 14:36:18;;;;;;;0.10;0.10;;;;;;;;;;5090475;28;20371;-67
2024/03/10 14:38:44;;;;;;;0.93;0.47;;;;;;;;;;5077560;28;20046;-67
2024/03/10 14:41:10;;;;;;;0.98;0.73;;;;;;;;;;5084155;28;20280;-67
2024/03/10 14:43:35;;;;;;;0.00;0.00;;;;;;;;;;5093499;28;20048;-67
2024/03/10 14:46:00;;;;;;;0.07;0.07;;;;;;;;;;5087002;28;20290;-67
2024/03/10 14:48:25;;;;;;;0.40;0.40;;;;;;;;;;5094230;28;20020;-67
2024/03/10 14:50:51;;;;;;;2.23;0.97;;;;;;;;;;5090741;28;20253;-67
2024/03/10 14:53:16;;;;;;;0.95;0.90;;;;;;;;;;5091998;28;20408;-67
2024/03/10 14:55:41;;;;;;;0.30;0.30;;;;;;;;;;5091213;28;20476;-67
2024/03/10 14:58:09;;;;;;;0.20;0.20;;;;;;;;;;5093860;28;20099;-67
2024/03/10 15:00:44;;;;;;;0.95;0.40;;;;;;;;;;5085124;28;20267;-67